createdAt,value
2023-03-31T00:00:03.880Z,94398.53
2023-03-31T00:02:37.295Z,94401.88
2023-03-31T00:05:24.856Z,94399.34
2023-03-31T00:08:02.983Z,94394.28
2023-03-31T00:10:54.837Z,94382.47
2023-03-31T00:13:27.930Z,94379.94
2023-03-31T00:16:16.905Z,94374.03
2023-03-31T00:18:58.868Z,94375.72
2023-03-31T00:21:52.874Z,94363.94
2023-03-31T00:24:46.860Z,94358.84
2023-03-31T00:27:34.901Z,94371.53
2023-03-31T00:30:14.858Z,94365.63
2023-03-31T00:33:01.875Z,94361.38
2023-03-31T00:35:41.922Z,94365.63
2023-03-31T00:38:36.853Z,94352.13
2023-03-31T00:41:23.877Z,94351.28
2023-03-31T00:44:14.011Z,94354.66
2023-03-31T00:47:26.888Z,94358.84
2023-03-31T00:50:04.005Z,94350.44
2023-03-31T00:52:53.878Z,94343.66
2023-03-31T00:55:40.884Z,94336.09
2023-03-31T00:58:34.857Z,94334.38
2023-03-31T01:01:16.989Z,94329.34
2023-03-31T01:04:10.929Z,94325.97
2023-03-31T01:07:15.877Z,94331.03
2023-03-31T01:10:00.880Z,94316.66
2023-03-31T01:12:58.887Z,94326.78
2023-03-31T01:15:45.886Z,94316.66
2023-03-31T01:18:21.984Z,94311.59
2023-03-31T01:21:20.880Z,94312.44
2023-03-31T01:24:15.873Z,94319.16
2023-03-31T01:27:24.900Z,94314.09
2023-03-31T01:30:53.905Z,94314.09
2023-03-31T01:33:49.896Z,94314.94
2023-03-31T01:36:45.891Z,94319.16
2023-03-31T01:40:16.909Z,94327.63
2023-03-31T01:43:31.899Z,94324.25
2023-03-31T01:46:38.944Z,94321.72
2023-03-31T01:49:33.991Z,94326.00
2023-03-31T01:52:32.914Z,94312.47
2023-03-31T01:55:19.901Z,94321.75
2023-03-31T01:58:24.905Z,94318.38
2023-03-31T02:01:23.943Z,94316.66
2023-03-31T02:04:19.899Z,94329.31
2023-03-31T02:07:00.014Z,94330.19
2023-03-31T02:09:51.885Z,94328.53
2023-03-31T02:12:35.912Z,94320.06
2023-03-31T02:15:34.921Z,94321.75
2023-03-31T02:18:32.914Z,94315.00
2023-03-31T02:21:26.920Z,94311.59
2023-03-31T02:24:19.948Z,94320.91
2023-03-31T02:27:25.007Z,94329.31
2023-03-31T02:30:13.900Z,94321.72
2023-03-31T02:32:58.942Z,94326.78
2023-03-31T02:35:52.999Z,94313.28
2023-03-31T02:38:44.923Z,94324.22
2023-03-31T02:41:19.031Z,94326.75
2023-03-31T02:44:05.941Z,94325.06
2023-03-31T02:46:40.062Z,94327.59
2023-03-31T02:49:27.928Z,94324.22
2023-03-31T02:52:20.009Z,94336.03
2023-03-31T02:55:24.975Z,94320.84
2023-03-31T02:58:29.999Z,94325.91
2023-03-31T03:01:58.983Z,94326.75
2023-03-31T03:05:27.936Z,94331.88
2023-03-31T03:08:41.915Z,94313.31
2023-03-31T03:11:52.921Z,94312.44
2023-03-31T03:15:10.900Z,94307.38
2023-03-31T03:18:02.050Z,94321.69
2023-03-31T03:20:57.942Z,94320.03
2023-03-31T03:23:44.934Z,94320.03
2023-03-31T03:26:21.467Z,94312.44
2023-03-31T03:29:07.976Z,94322.56
2023-03-31T03:31:41.070Z,94327.63
2023-03-31T03:34:27.919Z,94327.63
2023-03-31T03:37:07.933Z,94324.25
2023-03-31T03:39:54.938Z,94316.66
2023-03-31T03:42:28.058Z,94325.13
2023-03-31T03:45:14.945Z,94325.97
2023-03-31T03:47:55.001Z,94318.38
2023-03-31T03:50:43.966Z,94326.78
2023-03-31T03:53:17.112Z,94321.69
2023-03-31T03:56:06.132Z,94315.81
2023-03-31T03:58:39.134Z,94312.44
2023-03-31T04:01:25.885Z,94313.28
2023-03-31T04:03:59.102Z,94319.16
2023-03-31T04:06:45.941Z,94317.50
2023-03-31T04:09:19.083Z,94313.28
2023-03-31T04:12:05.932Z,94313.28
2023-03-31T04:14:39.096Z,94313.31
2023-03-31T04:17:25.974Z,94307.38
2023-03-31T04:20:01.771Z,94315.84
2023-03-31T04:22:48.968Z,94304.88
2023-03-31T04:25:22.821Z,94305.72
2023-03-31T04:28:10.014Z,94298.13
2023-03-31T04:30:43.549Z,94298.13
2023-03-31T04:33:29.982Z,94308.28
2023-03-31T04:36:14.038Z,94308.25
2023-03-31T04:39:07.953Z,94309.09
2023-03-31T04:41:54.957Z,94311.63
2023-03-31T04:44:34.976Z,94313.31
2023-03-31T04:47:29.004Z,94308.22
2023-03-31T04:50:17.963Z,94311.59
2023-03-31T04:52:51.064Z,94309.94
2023-03-31T04:55:38.977Z,94313.28
2023-03-31T04:58:12.044Z,94310.78
2023-03-31T05:00:59.004Z,94307.41
2023-03-31T05:03:32.163Z,94301.50
2023-03-31T05:06:18.956Z,94300.63
2023-03-31T05:08:59.000Z,94302.31
2023-03-31T05:11:52.953Z,94293.03
2023-03-31T05:14:40.103Z,94291.34
2023-03-31T05:17:13.094Z,94289.66
2023-03-31T05:20:00.067Z,94284.56
2023-03-31T05:22:43.329Z,94288.78
2023-03-31T05:25:39.991Z,94292.16
2023-03-31T05:28:26.999Z,94292.16
2023-03-31T05:31:06.999Z,94287.88
2023-03-31T05:33:53.984Z,94286.19
2023-03-31T05:36:27.259Z,94281.13
2023-03-31T05:39:15.020Z,94273.50
2023-03-31T05:41:48.222Z,94276.00
2023-03-31T05:44:34.976Z,94281.84
2023-03-31T05:47:15.030Z,94280.09
2023-03-31T05:50:12.630Z,94273.31
2023-03-31T05:53:08.012Z,94271.59
2023-03-31T05:56:02.014Z,94274.09
2023-03-31T05:58:56.062Z,94284.16
2023-03-31T06:01:50.046Z,94272.31
2023-03-31T06:04:44.034Z,94274.00
2023-03-31T06:07:32.026Z,94268.94
2023-03-31T06:10:13.987Z,94271.44
2023-03-31T06:13:08.008Z,94268.06
2023-03-31T06:16:06.087Z,94266.34
2023-03-31T06:18:41.156Z,94262.13
2023-03-31T06:21:28.014Z,94259.50
2023-03-31T06:24:01.139Z,94259.44
2023-03-31T06:26:48.013Z,94261.06
2023-03-31T06:29:21.219Z,94263.53
2023-03-31T06:32:08.229Z,94262.63
2023-03-31T06:34:42.100Z,94261.69
2023-03-31T06:37:28.973Z,94263.28
2023-03-31T06:40:02.203Z,94267.47
2023-03-31T06:42:49.019Z,94269.09
2023-03-31T06:45:44.075Z,94265.66
2023-03-31T06:48:32.030Z,94271.47
2023-03-31T06:51:10.316Z,94262.09
2023-03-31T06:53:56.999Z,94265.44
2023-03-31T06:56:36.998Z,94272.94
2023-03-31T06:59:24.006Z,94279.66
2023-03-31T07:01:57.253Z,94281.38
2023-03-31T07:04:44.005Z,94275.38
2023-03-31T07:07:25.026Z,94268.56
2023-03-31T07:10:12.005Z,94277.00
2023-03-31T07:12:45.120Z,94283.66
2023-03-31T07:15:33.010Z,94284.44
2023-03-31T07:18:06.901Z,94275.84
2023-03-31T07:20:57.022Z,94279.97
2023-03-31T07:23:31.323Z,94275.56
2023-03-31T07:26:18.037Z,94266.13
2023-03-31T07:28:58.009Z,94268.59
2023-03-31T07:31:45.065Z,94265.97
2023-03-31T07:34:25.073Z,94271.00
2023-03-31T07:37:12.092Z,94265.84
2023-03-31T07:39:52.028Z,94264.88
2023-03-31T07:42:40.035Z,94269.03
2023-03-31T07:45:14.144Z,94267.25
2023-03-31T07:48:01.077Z,94262.84
2023-03-31T07:50:41.038Z,94258.47
2023-03-31T07:53:35.017Z,94265.97
2023-03-31T07:56:23.061Z,94254.72
2023-03-31T07:58:57.868Z,94250.22
2023-03-31T08:01:45.098Z,94239.28
2023-03-31T08:04:19.189Z,94240.03
2023-03-31T08:07:06.026Z,94231.63
2023-03-31T08:09:39.134Z,94230.69
2023-03-31T08:12:26.063Z,94221.19
2023-03-31T08:15:06.023Z,94225.41
2023-03-31T08:18:00.127Z,94221.06
2023-03-31T08:20:49.430Z,94204.31
2023-03-31T08:23:23.159Z,94203.09
2023-03-31T08:26:28.039Z,94196.94
2023-03-31T08:29:08.063Z,94190.88
2023-03-31T08:32:02.128Z,94189.41
2023-03-31T08:34:56.016Z,94189.09
2023-03-31T08:37:44.043Z,94177.75
2023-03-31T08:40:33.430Z,94170.22
2023-03-31T08:43:39.033Z,94153.88
2023-03-31T08:49:38.065Z,94151.47
2023-03-31T08:52:25.039Z,94149.56
2023-03-31T08:55:24.074Z,94151.91
2023-03-31T08:58:32.083Z,94146.31
2023-03-31T09:01:25.122Z,94147.22
2023-03-31T09:04:23.316Z,94150.66
2023-03-31T09:07:43.076Z,94134.63
2023-03-31T09:10:26.075Z,94132.13
2023-03-31T09:13:47.067Z,94130.81
2023-03-31T09:16:52.236Z,94127.81
2023-03-31T09:19:57.064Z,94117.72
2023-03-31T09:22:53.076Z,94112.69
2023-03-31T09:25:33.166Z,94114.78
2023-03-31T09:28:50.105Z,94104.72
2023-03-31T09:31:27.251Z,94098.25
2023-03-31T09:34:21.093Z,94103.25
2023-03-31T09:37:01.098Z,94100.66
2023-03-31T09:39:55.108Z,94088.72
2023-03-31T09:42:50.097Z,94083.69
2023-03-31T09:45:47.683Z,94070.72
2023-03-31T09:48:43.128Z,94075.78
2023-03-31T09:51:27.328Z,94074.06
2023-03-31T09:54:23.102Z,94069.16
2023-03-31T09:57:06.142Z,94066.22
2023-03-31T09:59:58.144Z,94063.78
2023-03-31T10:02:45.769Z,94053.59
2023-03-31T10:05:39.087Z,94054.22
2023-03-31T10:08:18.212Z,94054.78
2023-03-31T10:11:16.125Z,94044.72
2023-03-31T10:14:05.112Z,94050.56
2023-03-31T10:17:06.151Z,94047.50
2023-03-31T10:20:07.141Z,94047.91
2023-03-31T10:22:40.529Z,94052.22
2023-03-31T10:25:35.122Z,94038.75
2023-03-31T10:28:09.236Z,94038.75
2023-03-31T10:30:59.183Z,94032.59
2023-03-31T10:33:36.620Z,94030.75
2023-03-31T10:36:43.115Z,94024.16
2023-03-31T10:39:25.150Z,94025.16
2023-03-31T10:42:13.188Z,94024.56
2023-03-31T10:44:46.203Z,94017.03
2023-03-31T10:47:33.213Z,94019.63
2023-03-31T10:50:18.113Z,94014.13
2023-03-31T10:53:16.122Z,94010.97
2023-03-31T10:56:11.153Z,94006.28
2023-03-31T10:59:17.156Z,94001.31
2023-03-31T11:02:26.157Z,93996.41
2023-03-31T11:05:32.187Z,93993.81
2023-03-31T11:08:40.163Z,93992.13
2023-03-31T11:11:44.178Z,93994.44
2023-03-31T11:14:34.172Z,93994.72
2023-03-31T11:17:33.487Z,93982.25
2023-03-31T11:20:34.150Z,93985.13
2023-03-31T11:23:32.285Z,93980.06
2023-03-31T11:26:29.860Z,93971.13
2023-03-31T11:29:29.203Z,93973.97
2023-03-31T11:32:53.199Z,93975.13
2023-03-31T11:35:52.171Z,93973.25
2023-03-31T11:38:38.311Z,93970.53
2023-03-31T11:41:29.154Z,93964.31
2023-03-31T11:44:15.208Z,93963.22
2023-03-31T11:47:14.138Z,93964.66
2023-03-31T11:50:34.196Z,93965.75
2023-03-31T11:53:37.169Z,93971.63
2023-03-31T11:56:25.134Z,93967.00
2023-03-31T11:59:01.333Z,93973.19
2023-03-31T12:01:51.183Z,93974.97
2023-03-31T12:04:49.154Z,93972.81
2023-03-31T12:07:49.178Z,93983.75
2023-03-31T12:10:50.207Z,93980.56
2023-03-31T12:13:48.160Z,93977.38
2023-03-31T12:16:35.255Z,93974.53
2023-03-31T12:19:42.171Z,93980.81
2023-03-31T12:22:42.183Z,93972.31
2023-03-31T12:25:30.220Z,93978.13
2023-03-31T12:28:11.195Z,93974.03
2023-03-31T12:30:58.338Z,93975.06
2023-03-31T12:33:46.193Z,93981.16
2023-03-31T12:36:55.650Z,93972.91
2023-03-31T12:39:48.177Z,93977.00
2023-03-31T12:42:39.294Z,93979.38
2023-03-31T12:45:35.181Z,93963.31
2023-03-31T12:48:23.280Z,93971.25
2023-03-31T12:51:31.216Z,93965.31
2023-03-31T12:54:16.480Z,93969.00
2023-03-31T12:57:09.272Z,93953.22
2023-03-31T12:59:57.216Z,93965.44
2023-03-31T13:02:51.248Z,93966.91
2023-03-31T13:05:51.220Z,93967.09
2023-03-31T13:09:03.216Z,93969.28
2023-03-31T13:11:47.402Z,93962.06
2023-03-31T13:14:43.183Z,93954.66
2023-03-31T13:17:28.450Z,93954.22
2023-03-31T13:20:37.187Z,93950.28
2023-03-31T13:23:35.190Z,93951.09
2023-03-31T13:26:46.200Z,93939.88
2023-03-31T13:29:22.368Z,93940.03
2023-03-31T13:32:09.245Z,93929.88
2023-03-31T13:35:05.774Z,93919.81
2023-03-31T13:38:01.224Z,93908.09
2023-03-31T13:41:03.272Z,93907.13
2023-03-31T13:44:25.192Z,93895.28
2023-03-31T13:47:33.262Z,93892.75
2023-03-31T13:50:30.197Z,93900.53
2023-03-31T13:53:39.209Z,93891.03
2023-03-31T13:56:22.209Z,93889.34
2023-03-31T13:59:25.234Z,93885.19
2023-03-31T14:02:37.390Z,93879.16
2023-03-31T14:05:30.382Z,93874.19
2023-03-31T14:08:37.236Z,93867.41
2023-03-31T14:11:40.342Z,93866.06
2023-03-31T14:14:34.219Z,93857.00
2023-03-31T14:17:22.289Z,93857.16
2023-03-31T14:20:19.226Z,93842.63
2023-03-31T14:23:36.221Z,93851.22
2023-03-31T14:26:53.240Z,93847.06
2023-03-31T14:30:00.404Z,93842.72
2023-03-31T14:33:08.268Z,93850.50
2023-03-31T14:35:51.233Z,93839.69
2023-03-31T14:38:45.264Z,93839.81
2023-03-31T14:41:36.238Z,93835.91
2023-03-31T14:44:12.341Z,93838.69
2023-03-31T14:46:59.292Z,93835.03
2023-03-31T14:49:41.248Z,93824.38
2023-03-31T14:52:35.270Z,93825.66
2023-03-31T14:55:25.247Z,93826.63
2023-03-31T14:58:04.321Z,93818.97
2023-03-31T15:00:52.292Z,93819.91
2023-03-31T15:03:26.339Z,93812.22
2023-03-31T15:06:14.267Z,93821.75
2023-03-31T15:08:55.277Z,93819.09
2023-03-31T15:11:49.236Z,93806.13
2023-03-31T15:14:46.286Z,93805.31
2023-03-31T15:17:44.274Z,93800.09
2023-03-31T15:20:45.272Z,93801.94
2023-03-31T15:23:34.270Z,93795.47
2023-03-31T15:26:22.528Z,93798.84
2023-03-31T15:29:27.282Z,93796.41
2023-03-31T15:32:03.542Z,93802.66
2023-03-31T15:34:53.251Z,93796.06
2023-03-31T15:37:41.252Z,93798.59
2023-03-31T15:40:42.272Z,93793.44
2023-03-31T15:43:57.272Z,93785.09
2023-03-31T15:46:56.273Z,93789.63
2023-03-31T15:49:43.265Z,93780.34
2023-03-31T15:52:46.776Z,93783.78
2023-03-31T15:55:35.264Z,93771.00
2023-03-31T15:58:08.391Z,93771.00
2023-03-31T16:00:59.294Z,93766.88
2023-03-31T16:03:47.471Z,93756.66
2023-03-31T16:06:50.277Z,93753.31
2023-03-31T16:09:35.824Z,93754.16
2023-03-31T16:12:38.299Z,93748.38
2023-03-31T16:15:17.402Z,93738.16
2023-03-31T16:18:10.346Z,93739.94
2023-03-31T16:20:56.288Z,93731.50
2023-03-31T16:23:54.288Z,93735.72
2023-03-31T16:26:49.274Z,93725.75
2023-03-31T16:29:36.282Z,93722.50
2023-03-31T16:32:24.704Z,93723.56
2023-03-31T16:35:12.277Z,93716.13
2023-03-31T16:37:46.706Z,93713.56
2023-03-31T16:40:33.272Z,93707.66
2023-03-31T16:43:26.467Z,93705.16
2023-03-31T16:46:13.357Z,93706.09
2023-03-31T16:48:46.479Z,93702.75
2023-03-31T16:51:33.309Z,93709.53
2023-03-31T16:54:06.426Z,93695.28
2023-03-31T16:56:54.317Z,93693.63
2023-03-31T16:59:27.538Z,93698.13
2023-03-31T17:02:17.324Z,93683.78
2023-03-31T17:04:50.763Z,93684.69
2023-03-31T17:07:39.293Z,93679.66
2023-03-31T17:10:13.456Z,93680.53
2023-03-31T17:13:00.306Z,93678.13
2023-03-31T17:15:36.337Z,93673.03
2023-03-31T17:18:23.421Z,93673.03
2023-03-31T17:20:56.458Z,93671.44
2023-03-31T17:23:45.317Z,93677.38
2023-03-31T17:26:19.404Z,93670.63
2023-03-31T17:29:07.327Z,93675.00
2023-03-31T17:31:40.554Z,93677.59
2023-03-31T17:34:28.299Z,93684.41
2023-03-31T17:37:09.408Z,93679.28
2023-03-31T17:40:03.307Z,93678.56
2023-03-31T17:42:51.328Z,93681.16
2023-03-31T17:45:25.274Z,93670.09
2023-03-31T17:48:13.295Z,93665.84
2023-03-31T17:50:46.685Z,93670.94
2023-03-31T17:53:34.351Z,93671.78
2023-03-31T17:56:15.333Z,93667.69
2023-03-31T17:59:10.314Z,93666.91
2023-03-31T18:01:58.361Z,93668.66
2023-03-31T18:04:38.372Z,93656.75
2023-03-31T18:07:25.317Z,93660.97
2023-03-31T18:10:05.344Z,93654.22
2023-03-31T18:12:53.352Z,93651.78
2023-03-31T18:15:26.437Z,93654.34
2023-03-31T18:18:13.366Z,93648.47
2023-03-31T18:20:46.640Z,93634.94
2023-03-31T18:23:33.333Z,93636.72
2023-03-31T18:26:14.336Z,93632.53
2023-03-31T18:29:01.339Z,93631.88
2023-03-31T18:31:34.526Z,93620.84
2023-03-31T18:34:22.343Z,93631.09
2023-03-31T18:36:55.531Z,93633.75
2023-03-31T18:39:42.332Z,93629.59
2023-03-31T18:42:16.128Z,93634.72
2023-03-31T18:45:02.319Z,93636.44
2023-03-31T18:47:42.376Z,93630.53
2023-03-31T18:50:30.345Z,93629.59
2023-03-31T18:53:11.338Z,93632.97
2023-03-31T18:56:09.375Z,93631.25
2023-03-31T18:58:56.336Z,93626.97
2023-03-31T19:01:29.584Z,93626.09
2023-03-31T19:04:17.342Z,93621.75
2023-03-31T19:06:50.713Z,93625.94
2023-03-31T19:09:37.360Z,93628.50
2023-03-31T19:12:18.369Z,93618.19
2023-03-31T19:15:12.363Z,93608.13
2023-03-31T19:17:59.367Z,93607.22
2023-03-31T19:20:32.472Z,93607.19
2023-03-31T19:23:19.347Z,93604.63
2023-03-31T19:25:52.547Z,93607.19
2023-03-31T19:28:39.361Z,93607.09
2023-03-31T19:31:19.356Z,93608.00
2023-03-31T19:34:13.373Z,93603.69
2023-03-31T19:37:00.354Z,93595.16
2023-03-31T19:39:33.748Z,93589.19
2023-03-31T19:42:21.366Z,93584.03
2023-03-31T19:44:54.486Z,93582.28
2023-03-31T19:47:44.424Z,93578.03
2023-03-31T19:50:17.456Z,93572.09
2023-03-31T19:53:04.382Z,93560.22
2023-03-31T19:55:46.368Z,93565.31
2023-03-31T19:58:34.377Z,93559.34
2023-03-31T20:01:07.634Z,93555.03
2023-03-31T20:03:59.637Z,93540.53
2023-03-31T20:06:37.122Z,93549.00
2023-03-31T20:09:23.397Z,93550.69
2023-03-31T20:11:56.788Z,93543.91
2023-03-31T20:14:43.377Z,93554.97
2023-03-31T20:17:17.729Z,93550.78
2023-03-31T20:20:04.391Z,93547.34
2023-03-31T20:22:44.395Z,93543.13
2023-03-31T20:25:38.405Z,93543.09
2023-03-31T20:28:25.391Z,93541.38
2023-03-31T20:30:58.540Z,93537.94
2023-03-31T20:33:46.405Z,93540.50
2023-03-31T20:36:31.432Z,93545.63
2023-03-31T20:39:27.380Z,93544.91
2023-03-31T20:42:14.454Z,93551.78
2023-03-31T20:45:02.408Z,93550.91
2023-03-31T20:47:56.461Z,93547.56
2023-03-31T20:50:44.414Z,93553.47
2023-03-31T20:53:17.520Z,93549.22
2023-03-31T20:56:04.391Z,93548.44
2023-03-31T20:58:37.593Z,93550.22
2023-03-31T21:01:24.417Z,93552.75
2023-03-31T21:04:07.609Z,93547.69
2023-03-31T21:06:54.387Z,93543.50
2023-03-31T21:09:28.914Z,93543.50
2023-03-31T21:12:15.412Z,93549.53
2023-03-31T21:14:55.390Z,93541.81
2023-03-31T21:17:49.434Z,93529.94
2023-03-31T21:20:43.410Z,93534.13
2023-03-31T21:23:32.429Z,93519.75
2023-03-31T21:26:08.715Z,93523.94
2023-03-31T21:29:00.452Z,93520.56
2023-03-31T21:31:33.543Z,93523.16
2023-03-31T21:34:20.417Z,93515.47
2023-03-31T21:36:54.037Z,93520.56
2023-03-31T21:39:40.432Z,93519.69
2023-03-31T21:42:13.985Z,93521.38
2023-03-31T21:45:07.424Z,93516.31
2023-03-31T21:48:01.478Z,93506.94
2023-03-31T21:50:48.430Z,93494.28
2023-03-31T21:53:21.531Z,93481.59
2023-03-31T21:56:08.434Z,93485.94
2023-03-31T21:58:41.597Z,93489.38
2023-03-31T22:01:28.462Z,93499.56
2023-03-31T22:04:01.684Z,93492.75
2023-03-31T22:06:48.434Z,93494.53
2023-03-31T22:09:21.688Z,93498.00
2023-03-31T22:12:08.460Z,93493.81
2023-03-31T22:14:50.433Z,93490.47
2023-03-31T22:17:44.494Z,93481.16
2023-03-31T22:20:31.448Z,93481.16
2023-03-31T22:23:11.436Z,93470.13
2023-03-31T22:25:58.453Z,93470.25
2023-03-31T22:28:31.733Z,93466.09
2023-03-31T22:31:18.498Z,93471.19
2023-03-31T22:33:59.427Z,93476.38
2023-03-31T22:36:53.441Z,93469.63
2023-03-31T22:39:47.434Z,93470.47
2023-03-31T22:42:34.435Z,93477.28
2023-03-31T22:45:07.602Z,93475.69
2023-03-31T22:47:54.464Z,93472.31
2023-03-31T22:50:34.456Z,93469.78
2023-03-31T22:53:16.425Z,93470.63
2023-03-31T22:55:56.492Z,93458.81
2023-03-31T22:58:29.542Z,93462.22
2023-03-31T23:01:22.501Z,93462.28
2023-03-31T23:03:55.958Z,93464.81
2023-03-31T23:06:42.466Z,93484.28
2023-03-31T23:09:22.443Z,93482.56
2023-03-31T23:12:16.459Z,93482.66
2023-03-31T23:15:10.459Z,93487.75
2023-03-31T23:17:57.484Z,93466.66
2023-03-31T23:20:30.916Z,93453.94
2023-03-31T23:23:17.482Z,93444.69
2023-03-31T23:25:50.619Z,93445.63
2023-03-31T23:28:38.532Z,93433.00
2023-03-31T23:31:13.369Z,93427.94
2023-03-31T23:34:00.518Z,93427.13
2023-03-31T23:36:34.637Z,93425.47
2023-03-31T23:39:21.454Z,93417.81
2023-03-31T23:42:01.477Z,93419.50
2023-03-31T23:44:55.453Z,93411.03
2023-03-31T23:47:49.510Z,93398.31
2023-03-31T23:50:43.466Z,93395.00
2023-03-31T23:53:30.511Z,93389.13
2023-03-31T23:56:09.365Z,93390.06
2023-03-31T23:58:56.472Z,93394.25
